Time;durP1;ratioP1;P1;durP2;ratioP2;P2;SDS_P1;SDS_P2;PMS_P1;PMS_P2;Temp;Humidity;BMP_temperature;BMP_pressure;BME280_temperature;BME280_humidity;BME280_pressure;Samples;Min_cycle;Max_cycle;Signal;HPM_P1;HPM_P2
2022/10/24 00:00:33;;;;;;;3.28;2.97;;;;;;;17.60;61.69;102102.63;5009904;28;20038;-91
2022/10/24 00:03:02;;;;;;;4.90;3.33;;;;;;;17.60;61.49;102097.31;5003373;28;20053;-91
2022/10/24 00:05:29;;;;;;;3.88;3.00;;;;;;;17.52;61.35;102071.41;5009289;28;20052;-91
2022/10/24 00:07:59;;;;;;;3.88;2.65;;;;;;;17.60;61.31;102094.69;5006947;28;20030;-91
2022/10/24 00:10:27;;;;;;;3.72;2.88;;;;;;;17.56;61.06;102081.28;5007834;28;20029;-90
2022/10/24 00:12:56;;;;;;;3.50;3.03;;;;;;;17.54;61.30;102064.44;4995018;28;20033;-91
2022/10/24 00:15:22;;;;;;;3.40;3.00;;;;;;;17.53;61.35;102084.69;5003585;28;20878;-89
2022/10/24 00:18:02;;;;;;;5.60;3.55;;;;;;;17.60;61.30;102083.22;5009522;28;20026;-92
2022/10/24 00:20:30;;;;;;;4.57;3.15;;;;;;;17.48;61.15;102067.69;5010128;28;20041;-92
2022/10/24 00:22:58;;;;;;;3.47;3.13;;;;;;;17.30;61.40;102031.69;5003106;28;20495;-92
2022/10/24 00:25:25;;;;;;;4.60;3.10;;;;;;;17.46;61.13;102049.16;5008587;28;20032;-90
2022/10/24 00:27:54;;;;;;;3.53;2.90;;;;;;;17.51;60.90;102054.66;5002451;28;20476;-92
2022/10/24 00:30:58;;;;;;;5.35;3.17;;;;;;;17.55;61.33;102067.16;5015936;28;20030;-91
2022/10/24 00:33:31;;;;;;;3.83;3.33;;;;;;;17.43;61.48;102051.63;5015054;28;20088;-91
2022/10/24 00:35:57;;;;;;;4.82;3.42;;;;;;;17.44;61.21;102039.34;5043428;28;20444;-89
2022/10/24 00:38:50;;;;;;;4.50;2.92;;;;;;;17.60;61.06;102068.28;5012435;28;20323;-90
2022/10/24 00:41:33;;;;;;;3.88;3.03;;;;;;;17.58;61.24;102077.84;4996503;28;20038;-89
2022/10/24 00:44:28;;;;;;;4.65;3.13;;;;;;;17.58;61.36;102087.53;5022970;28;20565;-91
2022/10/24 00:47:34;;;;;;;3.80;2.88;;;;;;;17.58;61.12;102083.16;4999690;28;20053;-95
2022/10/24 00:50:18;;;;;;;5.32;3.22;;;;;;;17.56;61.26;102078.63;5015245;28;20125;-94
2022/10/24 00:53:04;;;;;;;3.30;2.80;;;;;;;17.58;61.21;102082.25;5030656;28;20037;-95
2022/10/24 00:56:00;;;;;;;4.90;2.80;;;;;;;17.57;61.34;102078.72;4997515;28;20029;-95
2022/10/24 00:59:08;;;;;;;4.43;3.17;;;;;;;17.55;61.16;102090.94;4999081;28;20120;-95
2022/10/24 01:01:57;;;;;;;3.25;2.90;;;;;;;17.53;61.14;102087.31;5024703;28;20603;-95
2022/10/24 01:04:28;;;;;;;3.20;2.67;;;;;;;17.53;61.33;102086.44;5022570;28;20044;-96
2022/10/24 01:07:15;;;;;;;3.70;2.92;;;;;;;17.56;61.21;102092.72;5017432;28;20487;-96
2022/10/24 01:13:41;;;;;;;3.45;3.15;;;;;;;17.55;61.04;102075.09;5011778;28;20045;-94
2022/10/24 01:16:14;;;;;;;4.75;2.80;;;;;;;17.54;60.98;102077.66;5038262;28;20044;-95
2022/10/24 01:18:59;;;;;;;4.18;3.10;;;;;;;17.46;61.14;102058.78;5014583;28;20034;-94
2022/10/24 01:21:35;;;;;;;3.30;3.00;;;;;;;17.21;61.30;102012.78;5020388;28;20033;-94
2022/10/24 01:24:20;;;;;;;;;;;;;;;17.51;61.12;102070.50;4992893;28;20507;-94
2022/10/24 01:27:44;;;;;;;3.30;2.70;;;;;;;17.45;61.08;102059.66;5040361;28;19913;-92
2022/10/24 01:30:18;;;;;;;3.72;2.97;;;;;;;17.31;60.97;102037.88;4960006;28;20034;-93
2022/10/24 01:32:59;;;;;;;4.95;2.80;;;;;;;17.54;60.98;102064.44;4943425;28;20031;-93
2022/10/24 01:35:36;;;;;;;3.33;2.67;;;;;;;17.50;61.22;102056.41;4991928;28;20076;-93
2022/10/24 01:38:52;;;;;;;4.45;3.00;;;;;;;17.55;60.84;102053.06;4994503;28;20030;-93
2022/10/24 01:41:37;;;;;;;4.20;3.15;;;;;;;17.53;60.95;102066.19;5012076;28;20029;-91
2022/10/24 01:44:19;;;;;;;4.63;3.20;;;;;;;17.50;60.90;102061.69;5003090;28;20025;-93
2022/10/24 01:47:30;;;;;;;5.35;2.80;;;;;;;17.54;60.71;102065.34;5024317;28;20125;-94
2022/10/24 01:50:09;;;;;;;3.78;2.90;;;;;;;17.50;60.87;102069.59;5006030;28;20030;-92
2022/10/24 01:52:39;;;;;;;3.92;2.95;;;;;;;17.52;60.78;102066.13;4998011;28;20030;-92
2022/10/24 01:55:38;;;;;;;3.75;2.85;;;;;;;17.50;60.88;102068.66;4996795;28;20141;-93
2022/10/24 01:58:20;;;;;;;3.55;2.97;;;;;;;17.39;60.90;102047.06;5021532;28;20467;-92
2022/10/24 02:01:02;;;;;;;5.43;3.17;;;;;;;17.22;60.84;102017.22;5022011;28;20022;-94
2022/10/24 02:03:53;;;;;;;4.78;2.97;;;;;;;17.37;61.02;102043.44;4998856;28;20029;-92
2022/10/24 02:06:41;;;;;;;3.22;2.50;;;;;;;17.49;61.02;102064.25;5010190;28;20038;-92
2022/10/24 02:09:15;;;;;;;3.28;2.67;;;;;;;17.45;60.89;102062.28;4989541;28;20124;-93
2022/10/24 02:11:41;;;;;;;5.03;3.17;;;;;;;17.36;60.78;102054.84;4996846;28;20030;-92
2022/10/24 02:14:34;;;;;;;3.10;2.70;;;;;;;17.46;61.11;102070.28;4997911;28;20129;-92
2022/10/24 02:20:27;;;;;;;3.30;2.97;;;;;;;17.33;61.02;102053.78;5009295;28;20052;-93
2022/10/24 02:23:17;;;;;;;3.22;2.92;;;;;;;17.34;60.90;102052.97;4994057;28;20022;-93
2022/10/24 02:25:46;;;;;;;4.40;2.67;;;;;;;17.39;60.89;102073.44;4987488;28;20036;-94
2022/10/24 02:28:18;;;;;;;4.03;2.65;;;;;;;17.37;61.00;102068.94;4989165;28;20403;-93
2022/10/24 02:30:51;;;;;;;4.15;2.60;;;;;;;17.29;60.76;102064.22;4995617;28;20065;-93
2022/10/24 02:33:25;;;;;;;2.88;2.58;;;;;;;17.45;60.78;102086.94;4985319;28;20030;-93
2022/10/24 02:36:10;;;;;;;3.67;3.00;;;;;;;17.46;60.82;102082.56;5042863;28;20026;-93
2022/10/24 02:39:02;;;;;;;4.32;2.88;;;;;;;17.47;60.88;102081.75;4996044;28;20026;-94
2022/10/24 02:41:50;;;;;;;3.05;2.75;;;;;;;17.45;60.79;102080.78;5013228;28;20525;-94
2022/10/24 02:44:17;;;;;;;3.55;2.80;;;;;;;17.43;60.89;102079.78;5008003;28;20492;-91
2022/10/24 02:47:06;;;;;;;2.53;2.33;;;;;;;17.41;61.01;102085.00;4992878;28;20112;-92
2022/10/24 02:49:33;;;;;;;3.40;2.60;;;;;;;17.43;60.60;102093.91;5000571;28;20046;-91
2022/10/24 02:52:37;;;;;;;4.00;2.85;;;;;;;17.42;60.64;102102.66;5011715;28;20033;-92
2022/10/24 02:55:03;;;;;;;3.25;2.50;;;;;;;17.45;60.84;102105.44;5028036;28;20116;-93
2022/10/24 02:57:31;;;;;;;3.42;2.70;;;;;;;17.36;60.69;102089.16;5013274;28;20055;-93
2022/10/24 03:00:00;;;;;;;3.20;2.70;;;;;;;17.29;60.82;102085.34;5010753;28;20038;-91
2022/10/24 03:03:21;;;;;;;2.85;2.65;;;;;;;17.44;60.76;102100.06;4981167;28;20030;-93
2022/10/24 03:05:59;;;;;;;3.28;2.60;;;;;;;17.35;60.82;102100.53;5016136;28;20037;-92
2022/10/24 03:08:35;;;;;;;2.65;2.45;;;;;;;17.40;60.65;102099.06;4995041;28;20037;-94
2022/10/24 03:11:19;;;;;;;3.83;2.60;;;;;;;17.29;60.98;102080.06;4992557;28;20033;-92
2022/10/24 03:13:56;;;;;;;3.92;2.55;;;;;;;17.28;61.03;102091.44;5019989;28;20029;-93
2022/10/24 03:16:22;;;;;;;3.10;2.80;;;;;;;17.21;60.95;102081.44;4987773;28;20050;-94
2022/10/24 03:19:10;;;;;;;4.93;2.60;;;;;;;17.39;60.80;102097.22;4997542;28;20026;-95
2022/10/24 03:21:53;;;;;;;4.10;2.70;;;;;;;17.36;60.84;102091.81;5010548;28;20058;-95
2022/10/24 03:24:19;;;;;;;2.60;2.17;;;;;;;17.27;60.85;102086.06;5004230;28;20026;-96
2022/10/24 03:27:01;;;;;;;3.00;2.50;;;;;;;17.37;60.68;102084.78;4993378;28;20029;-96
2022/10/24 03:29:36;;;;;;;3.13;2.47;;;;;;;17.36;60.66;102077.72;5010170;28;20017;-95
2022/10/24 03:32:15;;;;;;;3.30;2.60;;;;;;;17.37;60.60;102087.44;5011968;28;20030;-96
2022/10/24 03:35:01;;;;;;;3.17;2.70;;;;;;;17.33;60.71;102082.81;5014777;28;20510;-96
2022/10/24 03:37:30;;;;;;;2.58;2.38;;;;;;;17.25;60.64;102077.16;5002232;28;20033;-95
2022/10/24 03:40:14;;;;;;;2.60;2.40;;;;;;;17.04;60.89;102040.13;4989981;28;20050;-95
2022/10/24 03:43:10;;;;;;;4.15;2.58;;;;;;;17.38;60.52;102081.34;5010695;28;20045;-96
2022/10/24 03:45:55;;;;;;;2.53;2.30;;;;;;;17.35;60.68;102082.06;5023030;28;20386;-93
2022/10/24 03:48:29;;;;;;;3.42;2.45;;;;;;;17.25;60.54;102066.59;5042203;28;20025;-92
2022/10/24 03:51:00;;;;;;;2.83;2.50;;;;;;;17.13;60.77;102051.13;5007140;28;20054;-92
2022/10/24 03:53:37;;;;;;;2.65;2.38;;;;;;;17.29;60.70;102073.84;5011277;28;20483;-93
2022/10/24 03:56:14;;;;;;;4.10;2.47;;;;;;;17.31;60.65;102077.47;4994379;28;20040;-92
2022/10/24 03:58:39;;;;;;;3.60;2.60;;;;;;;17.30;60.64;102071.28;4991449;28;20033;-92
2022/10/24 04:01:05;;;;;;;3.08;2.60;;;;;;;17.16;60.82;102037.16;5012083;28;20033;-89
2022/10/24 04:03:31;;;;;;;3.30;2.53;;;;;;;17.21;60.81;102057.66;5003870;28;20483;-90
2022/10/24 04:06:41;;;;;;;2.90;2.53;;;;;;;17.29;60.79;102065.94;5007653;28;20143;-92
2022/10/24 04:09:16;;;;;;;2.50;2.30;;;;;;;17.11;60.56;102031.66;5013044;28;20466;-93
2022/10/24 04:11:44;;;;;;;2.58;2.38;;;;;;;17.21;60.68;102054.13;4991889;28;20027;-91
2022/10/24 04:14:12;;;;;;;3.78;2.50;;;;;;;17.23;60.87;102060.34;4993795;28;20030;-92
2022/10/24 04:16:39;;;;;;;2.95;2.47;;;;;;;17.22;60.77;102056.81;5001282;28;20050;-91
2022/10/24 04:19:06;;;;;;;4.70;2.70;;;;;;;17.15;60.70;102041.53;4987637;28;20039;-89
2022/10/24 04:21:32;;;;;;;2.70;2.42;;;;;;;17.15;60.56;102033.63;4974036;28;20122;-91
2022/10/24 04:24:03;;;;;;;3.53;2.55;;;;;;;17.19;60.62;102047.88;4992896;28;20053;-90
2022/10/24 04:26:28;;;;;;;2.97;2.70;;;;;;;17.02;60.74;102024.22;4991924;28;20035;-91
2022/10/24 04:29:05;;;;;;;4.00;2.83;;;;;;;17.15;60.69;102056.47;4973806;28;20029;-91
2022/10/24 04:31:33;;;;;;;2.83;2.50;;;;;;;17.11;60.72;102036.94;5005272;28;20562;-91
2022/10/24 04:34:08;;;;;;;4.10;2.80;;;;;;;17.04;60.80;102033.09;4975002;28;20096;-91
2022/10/24 04:36:35;;;;;;;2.65;2.45;;;;;;;17.23;60.73;102066.56;4987198;28;20050;-92
2022/10/24 04:39:14;;;;;;;4.25;2.63;;;;;;;17.22;60.63;102070.00;4986617;28;20053;-91
2022/10/24 04:41:42;;;;;;;2.70;2.28;;;;;;;17.11;60.73;102052.78;4969247;28;20072;-92
2022/10/24 04:44:17;;;;;;;3.25;2.47;;;;;;;17.18;60.86;102073.34;4980673;28;20034;-86
2022/10/24 04:46:43;;;;;;;2.80;2.50;;;;;;;16.99;60.65;102039.88;4962687;28;20054;-88
2022/10/24 04:49:21;;;;;;;4.05;2.53;;;;;;;16.88;60.73;102025.28;4982823;28;20567;-91
2022/10/24 04:51:51;;;;;;;3.47;2.67;;;;;;;17.19;60.61;102080.44;4988705;28;20472;-89
2022/10/24 04:54:16;;;;;;;4.57;2.80;;;;;;;16.84;60.79;102000.47;4992423;28;20030;-87
2022/10/24 04:56:47;;;;;;;3.03;2.72;;;;;;;17.16;60.68;102071.47;5003036;28;20042;-91
2022/10/24 04:59:14;;;;;;;2.78;2.42;;;;;;;17.17;60.83;102081.22;4991394;28;20125;-92
2022/10/24 05:01:40;;;;;;;2.80;2.38;;;;;;;16.75;60.66;101992.09;5007998;28;20019;-95
2022/10/24 05:04:07;;;;;;;3.55;2.55;;;;;;;17.00;60.67;102043.44;5006313;28;20035;-95
2022/10/24 05:06:32;;;;;;;3.03;2.45;;;;;;;16.94;60.78;102038.75;4988944;28;20097;-94
2022/10/24 05:08:59;;;;;;;2.88;2.42;;;;;;;16.85;60.79;102020.75;4990975;28;20476;-92
2022/10/24 05:11:27;;;;;;;3.58;2.70;;;;;;;17.04;60.68;102043.66;4997086;28;20527;-91
2022/10/24 05:13:59;;;;;;;2.83;2.60;;;;;;;17.19;60.40;102079.56;4973740;28;20038;-91
2022/10/24 05:16:29;;;;;;;2.80;2.50;;;;;;;16.92;60.68;102035.16;4966455;28;20118;-91
2022/10/24 05:18:57;;;;;;;2.70;2.38;;;;;;;16.88;60.67;102033.19;5025859;28;20042;-90
2022/10/24 05:21:24;;;;;;;3.13;2.60;;;;;;;17.15;60.85;102080.22;5014542;28;20037;-92
2022/10/24 05:23:51;;;;;;;3.10;2.70;;;;;;;16.97;60.65;102053.84;4994667;28;20034;-94
2022/10/24 05:26:45;;;;;;;5.38;2.92;;;;;;;17.13;60.94;102082.78;5013539;28;20034;-94
2022/10/24 05:29:22;;;;;;;3.50;2.67;;;;;;;16.90;60.79;102050.00;4999459;28;20060;-94
2022/10/24 05:31:48;;;;;;;3.67;2.70;;;;;;;17.01;60.75;102076.91;4999569;28;20029;-91
2022/10/24 05:34:18;;;;;;;3.17;2.88;;;;;;;17.05;60.91;102084.16;5011513;28;20491;-94
2022/10/24 05:36:51;;;;;;;2.80;2.50;;;;;;;16.97;60.66;102078.47;5010957;28;20030;-94
2022/10/24 05:39:18;;;;;;;4.60;2.58;;;;;;;17.01;60.46;102080.44;5013284;28;20030;-92
2022/10/24 05:45:08;;;;;;;3.92;2.83;;;;;;;17.05;60.50;102095.59;5015687;28;20422;-93
2022/10/24 05:47:53;;;;;;;3.03;2.72;;;;;;;17.05;60.91;102116.72;4998817;28;20036;-93
2022/10/24 05:54:13;;;;;;;5.32;2.80;;;;;;;17.03;60.79;102121.00;5015552;28;20112;-92
2022/10/24 05:56:47;;;;;;;5.40;2.95;;;;;;;16.93;60.81;102097.63;5012129;28;20490;-95
2022/10/24 05:59:12;;;;;;;7.20;2.90;;;;;;;16.76;60.54;102073.00;5007713;28;20026;-94
2022/10/24 06:01:40;;;;;;;17.58;4.18;;;;;;;16.93;59.78;102104.66;4999628;28;20034;-93
2022/10/24 06:04:15;;;;;;;9.13;3.20;;;;;;;16.86;60.56;102091.16;5010657;28;20121;-93
2022/10/24 06:06:45;;;;;;;5.25;3.22;;;;;;;17.06;60.64;102115.91;5004226;28;20026;-92
2022/10/24 06:09:11;;;;;;;3.45;2.78;;;;;;;17.03;60.58;102112.19;5024788;28;20083;-85
2022/10/24 06:11:36;;;;;;;;;;;;;;;17.02;60.81;102110.41;5014270;28;20041;-86
2022/10/24 06:14:03;;;;;;;3.63;3.03;;;;;;;16.95;61.04;102113.56;5005776;28;19917;-86
2022/10/24 06:16:29;;;;;;;4.35;3.00;;;;;;;16.99;60.83;102111.13;5011593;28;20026;-87
2022/10/24 06:18:55;;;;;;;;;;;;;;;17.02;60.72;102123.59;4989805;28;20042;-86
2022/10/24 06:21:21;;;;;;;3.97;2.90;;;;;;;16.89;60.94;102104.50;5003457;28;19916;-85
2022/10/24 06:23:47;;;;;;;3.63;2.75;;;;;;;17.02;60.72;102115.69;5012328;28;20067;-85
2022/10/24 06:26:13;;;;;;;3.92;2.85;;;;;;;17.00;60.92;102114.69;5026887;28;20037;-85
2022/10/24 06:28:42;;;;;;;4.50;2.78;;;;;;;16.93;60.93;102099.38;5009092;28;20022;-86
2022/10/24 06:31:12;;;;;;;5.03;3.05;;;;;;;17.01;61.06;102116.50;5005128;28;20038;-85
2022/10/24 06:33:38;;;;;;;4.00;2.97;;;;;;;16.97;61.19;102109.25;4984030;28;20033;-86
2022/10/24 06:36:08;;;;;;;5.97;3.05;;;;;;;17.00;61.01;102104.16;4992890;28;20042;-84
2022/10/24 06:38:34;;;;;;;3.20;2.60;;;;;;;16.98;61.06;102114.63;5012384;28;20034;-84
2022/10/24 06:41:04;;;;;;;;;;;;;;;16.99;61.13;102119.06;5004865;28;20030;-84
2022/10/24 06:43:30;;;;;;;4.22;2.40;;;;;;;17.02;61.16;102113.94;5013417;28;19920;-84
2022/10/24 06:45:56;;;;;;;4.25;2.47;;;;;;;16.93;61.38;102105.53;5026573;28;20038;-82
2022/10/24 06:48:21;;;;;;;3.05;2.50;;;;;;;17.00;61.18;102120.88;5005317;28;20033;-83
2022/10/24 06:50:47;;;;;;;5.90;2.92;;;;;;;16.98;61.26;102111.97;5012448;28;20499;-82
2022/10/24 06:53:12;;;;;;;4.05;2.63;;;;;;;17.04;61.28;102119.31;5001482;28;20049;-84
2022/10/24 06:55:39;;;;;;;3.92;2.70;;;;;;;16.97;61.14;102123.34;5012512;28;20029;-84
2022/10/24 06:58:05;;;;;;;4.22;2.85;;;;;;;16.99;61.35;102126.06;4982948;28;20121;-85
2022/10/24 07:00:33;;;;;;;4.43;2.70;;;;;;;16.97;61.28;102123.34;5010935;28;20403;-86
2022/10/24 07:02:59;;;;;;;4.13;2.97;;;;;;;16.95;61.23;102118.81;5011021;28;20109;-85
2022/10/24 07:05:26;;;;;;;3.45;2.70;;;;;;;16.90;61.41;102110.69;5028259;28;20215;-86
2022/10/24 07:07:52;;;;;;;3.78;2.60;;;;;;;16.94;61.32;102117.03;5006533;28;20030;-85
2022/10/24 07:10:18;;;;;;;3.13;2.60;;;;;;;16.97;61.41;102128.63;5011829;28;20380;-84
2022/10/24 07:12:43;;;;;;;5.70;2.83;;;;;;;17.02;61.50;102129.78;5011835;28;20037;-85
2022/10/24 07:15:10;;;;;;;3.50;2.58;;;;;;;16.95;61.52;102124.09;5009337;28;20148;-84
2022/10/24 07:17:41;;;;;;;3.17;2.80;;;;;;;16.91;61.53;102116.88;4993206;28;20069;-85
2022/10/24 07:20:07;;;;;;;5.22;2.90;;;;;;;16.86;61.45;102108.72;5010354;28;20026;-84
2022/10/24 07:22:32;;;;;;;;;;;;;;;17.00;61.67;102136.72;5005305;28;20033;-84
2022/10/24 07:24:58;;;;;;;3.35;2.78;;;;;;;17.03;61.55;102130.66;5002104;28;19914;-84
2022/10/24 07:27:24;;;;;;;3.58;3.15;;;;;;;17.06;61.47;102129.09;5010493;28;20021;-84
2022/10/24 07:29:50;;;;;;;6.28;2.75;;;;;;;17.06;61.55;102130.84;4999047;28;20030;-83
2022/10/24 07:32:16;;;;;;;4.32;2.75;;;;;;;17.06;61.49;102131.75;5010690;28;20057;-82
2022/10/24 07:34:42;;;;;;;3.72;2.70;;;;;;;17.02;61.21;102106.03;5011302;28;20029;-83
2022/10/24 07:37:08;;;;;;;3.05;2.75;;;;;;;17.09;61.43;102120.41;5011873;28;20029;-83
2022/10/24 07:39:33;;;;;;;4.55;2.90;;;;;;;17.11;61.38;102120.50;5011833;28;20155;-84
2022/10/24 07:42:00;;;;;;;3.28;2.63;;;;;;;17.14;61.38;102134.72;5010614;28;20029;-85
2022/10/24 07:44:28;;;;;;;3.75;2.60;;;;;;;17.04;61.42;102116.66;5010752;28;20068;-84
2022/10/24 07:46:54;;;;;;;3.10;2.67;;;;;;;17.13;61.34;102125.03;4996563;28;20097;-85
2022/10/24 07:49:20;;;;;;;5.85;3.88;;;;;;;16.99;61.37;102097.94;4992492;28;20076;-83
2022/10/24 07:51:46;;;;;;;11.60;3.92;;;;;;;17.02;61.18;102084.91;5006823;28;20120;-81
2022/10/24 07:54:12;;;;;;;184.85;17.10;;;;;;;17.33;61.83;102123.34;5010182;28;20049;-83
2022/10/24 07:56:38;;;;;;;78.70;9.38;;;;;;;17.28;61.59;102124.88;5013116;28;20041;-85
2022/10/24 07:59:03;;;;;;;25.60;4.90;;;;;;;17.20;61.38;102107.75;5012411;28;20025;-85
2022/10/24 08:01:29;;;;;;;28.88;4.60;;;;;;;17.20;61.54;102116.56;5010543;28;20034;-85
2022/10/24 08:03:55;;;;;;;39.97;7.05;;;;;;;17.17;61.61;102116.44;5003387;28;20018;-86
2022/10/24 08:06:24;;;;;;;57.50;8.32;;;;;;;17.19;61.84;102121.78;5004614;28;20411;-87
2022/10/24 08:08:50;;;;;;;46.78;8.18;;;;;;;17.13;61.62;102116.22;5013701;28;20026;-84
2022/10/24 08:11:26;;;;;;;38.97;7.45;;;;;;;17.15;61.81;102117.19;5018004;28;20424;-85
2022/10/24 08:13:53;;;;;;;37.33;8.07;;;;;;;17.06;61.74;102096.53;5007350;28;20029;-84
2022/10/24 08:16:21;;;;;;;31.30;7.32;;;;;;;17.20;61.64;102131.50;4998227;28;20058;-84
2022/10/24 08:18:47;;;;;;;48.40;7.70;;;;;;;17.18;61.60;102135.81;5010668;28;20046;-84
2022/10/24 08:21:14;;;;;;;40.60;9.13;;;;;;;17.17;61.68;102129.63;5010246;28;20112;-82
2022/10/24 08:23:43;;;;;;;35.17;7.72;;;;;;;16.96;61.76;102089.00;5002513;28;20771;-84
2022/10/24 08:26:11;;;;;;;33.83;7.82;;;;;;;16.96;61.70;102081.97;5006811;28;20040;-83
2022/10/24 08:28:37;;;;;;;28.65;7.53;;;;;;;17.14;61.63;102107.44;5006657;28;20530;-86
2022/10/24 08:31:06;;;;;;;35.22;7.40;;;;;;;17.15;61.62;102104.00;5008508;28;20037;-85
2022/10/24 08:33:32;;;;;;;28.75;6.80;;;;;;;17.12;61.85;102094.16;5021182;28;20061;-85
2022/10/24 08:36:00;;;;;;;28.30;7.38;;;;;;;17.21;61.49;102110.47;4998348;28;20507;-85
2022/10/24 08:38:27;;;;;;;26.25;6.63;;;;;;;17.16;61.54;102084.66;5005965;28;20030;-85
2022/10/24 08:40:52;;;;;;;28.20;6.80;;;;;;;17.11;61.48;102078.28;4999111;28;20037;-85
2022/10/24 08:43:18;;;;;;;25.27;6.35;;;;;;;17.04;61.67;102063.88;5009573;28;20037;-85
2022/10/24 08:46:09;;;;;;;21.17;6.55;;;;;;;17.23;61.54;102090.31;5012389;28;20069;-85
2022/10/24 08:48:50;;;;;;;24.48;6.18;;;;;;;17.23;61.66;102082.41;5007816;28;20029;-84
2022/10/24 08:51:29;;;;;;;20.55;6.28;;;;;;;17.23;61.57;102081.47;5017830;28;20026;-83
2022/10/24 08:53:56;;;;;;;18.55;5.20;;;;;;;17.52;60.69;102089.88;5010431;28;20034;-85
2022/10/24 08:56:27;;;;;;;18.67;5.57;;;;;;;17.49;60.86;102086.25;5013064;28;20053;-89
2022/10/24 08:58:54;;;;;;;14.23;5.35;;;;;;;17.11;61.44;102062.44;5015767;28;20120;-87
2022/10/24 09:01:35;;;;;;;17.20;5.50;;;;;;;17.37;60.87;102079.50;5014132;28;20034;-90
2022/10/24 09:04:05;;;;;;;9.48;4.35;;;;;;;17.61;59.66;102074.44;5004133;28;20034;-89
2022/10/24 09:06:38;;;;;;;6.90;4.22;;;;;;;17.70;59.60;102072.25;4989427;28;20530;-92
2022/10/24 09:09:18;;;;;;;12.95;4.35;;;;;;;17.79;59.06;102074.41;5010279;28;20026;-91
2022/10/24 09:11:51;;;;;;;11.02;4.30;;;;;;;17.61;60.05;102077.09;5012637;28;20033;-90
2022/10/24 09:14:43;;;;;;;9.20;4.30;;;;;;;17.49;60.55;102069.53;5009749;28;20030;-89
2022/10/24 09:17:19;;;;;;;12.68;4.43;;;;;;;17.42;60.82;102076.25;5001845;28;20043;-89
2022/10/24 09:19:49;;;;;;;8.13;4.10;;;;;;;17.33;60.95;102065.25;5003163;28;20040;-89
2022/10/24 09:22:16;;;;;;;10.63;4.53;;;;;;;17.34;61.09;102069.72;5003359;28;20645;-89
2022/10/24 09:24:46;;;;;;;8.98;4.40;;;;;;;17.28;60.99;102065.03;5004906;28;20026;-88
2022/10/24 09:27:34;;;;;;;19.95;4.55;;;;;;;17.39;61.03;102062.00;4991571;28;20479;-88
2022/10/24 09:30:19;;;;;;;11.20;4.25;;;;;;;17.36;61.12;102064.50;5007432;28;20558;-91
2022/10/24 09:32:45;;;;;;;10.50;4.50;;;;;;;17.37;61.10;102059.28;5008053;28;20026;-92
2022/10/24 09:35:16;;;;;;;8.60;4.22;;;;;;;17.34;61.03;102045.06;5006027;28;20101;-90
2022/10/24 09:37:49;;;;;;;9.77;4.00;;;;;;;17.31;61.12;102035.22;4994030;28;20540;-91
2022/10/24 09:40:20;;;;;;;7.82;4.10;;;;;;;17.33;61.34;102049.41;5014818;28;20022;-91
2022/10/24 09:42:51;;;;;;;10.32;4.25;;;;;;;17.40;61.12;102045.31;5013792;28;20021;-92
2022/10/24 09:45:35;;;;;;;9.23;4.28;;;;;;;17.35;61.07;102044.19;5014611;28;20030;-92
2022/10/24 09:48:06;;;;;;;8.88;4.20;;;;;;;17.36;61.20;102035.47;5016997;28;20510;-90
2022/10/24 09:50:50;;;;;;;10.32;3.90;;;;;;;17.31;61.28;102037.88;5014710;28;20032;-89
2022/10/24 09:53:41;;;;;;;9.25;3.80;;;;;;;17.29;61.28;102010.47;5012885;28;20018;-91
2022/10/24 09:56:13;;;;;;;9.50;4.13;;;;;;;17.37;61.34;102027.59;5012204;28;20443;-89
2022/10/24 09:58:38;;;;;;;6.10;3.90;;;;;;;17.24;61.17;101999.72;5001177;28;20022;-87
2022/10/24 10:01:21;;;;;;;10.55;4.40;;;;;;;17.38;61.13;102024.13;4996629;28;20557;-90
2022/10/24 10:04:02;;;;;;;7.65;3.92;;;;;;;17.36;61.26;102024.91;5000294;28;20021;-89
2022/10/24 10:06:30;;;;;;;5.40;3.72;;;;;;;17.39;61.17;102023.28;5012976;28;20086;-90
2022/10/24 10:09:11;;;;;;;8.43;4.00;;;;;;;17.36;61.55;102017.88;5013331;28;20009;-90
2022/10/24 10:11:37;;;;;;;8.70;4.22;;;;;;;17.22;61.27;101979.38;5004844;28;20029;-91
2022/10/24 10:14:19;;;;;;;7.13;4.13;;;;;;;17.28;61.41;101990.22;5014717;28;20026;-90
2022/10/24 10:16:45;;;;;;;7.07;4.10;;;;;;;17.41;61.19;102004.88;5018038;28;20107;-92
2022/10/24 10:19:15;;;;;;;7.72;3.83;;;;;;;17.22;61.59;101987.28;5007401;28;20054;-91
2022/10/24 10:22:04;;;;;;;12.70;4.25;;;;;;;17.34;61.67;102003.69;5006485;28;20053;-90
2022/10/24 10:24:42;;;;;;;8.05;3.78;;;;;;;17.36;61.71;101995.84;5012473;28;20565;-90
2022/10/24 10:27:23;;;;;;;7.80;4.25;;;;;;;17.40;61.44;101996.06;5000926;28;20022;-90
2022/10/24 10:29:48;;;;;;;10.85;4.45;;;;;;;17.80;61.78;101987.28;5000235;28;20022;-86
2022/10/24 10:32:27;;;;;;;10.45;4.88;;;;;;;18.23;61.64;101969.75;5012141;28;20485;-87
2022/10/24 10:35:03;;;;;;;15.50;4.38;;;;;;;18.19;61.29;101971.34;4987037;28;20041;-83
2022/10/24 10:37:37;;;;;;;18.60;5.82;;;;;;;18.27;61.50;101983.16;5019240;28;20034;-84
2022/10/24 10:40:15;;;;;;;17.52;5.30;;;;;;;17.96;61.62;101985.34;4999473;28;20025;-88
2022/10/24 10:42:48;;;;;;;74.05;9.43;;;;;;;17.95;62.73;101975.59;5012711;28;20513;-90
2022/10/24 10:45:33;;;;;;;28.33;6.43;;;;;;;17.79;62.78;101976.63;5013201;28;20042;-92
2022/10/24 10:48:17;;;;;;;20.40;4.88;;;;;;;17.56;62.93;101970.34;5009717;28;20026;-91
2022/10/24 10:50:49;;;;;;;20.85;5.25;;;;;;;17.49;63.14;101970.06;5012594;28;20104;-91
2022/10/24 10:53:36;;;;;;;14.65;5.30;;;;;;;17.44;63.26;101968.03;5012735;28;20013;-92
2022/10/24 10:56:42;;;;;;;15.40;4.93;;;;;;;17.40;63.34;101969.66;5016650;28;20022;-92
2022/10/24 10:59:17;;;;;;;19.85;4.88;;;;;;;17.38;63.43;101970.44;4931017;29;20319;-92
2022/10/24 11:02:22;;;;;;;17.73;5.20;;;;;;;17.35;63.52;101968.53;4917198;29;20056;-91
2022/10/24 11:04:57;;;;;;;12.30;4.50;;;;;;;17.28;63.32;101956.78;4975250;28;20273;-91
2022/10/24 11:07:36;;;;;;;15.88;4.70;;;;;;;17.35;63.38;101964.97;4993094;28;20058;-91
2022/10/24 11:10:21;;;;;;;14.65;4.68;;;;;;;17.36;63.47;101961.53;5001503;28;20029;-91
2022/10/24 11:12:50;;;;;;;14.93;4.70;;;;;;;17.33;63.26;101970.19;4966410;28;20061;-92
2022/10/24 11:15:29;;;;;;;13.02;4.47;;;;;;;17.28;63.40;101946.22;4988430;28;20030;-92
2022/10/24 11:18:03;;;;;;;8.70;4.25;;;;;;;17.35;63.43;101957.06;4999084;28;20046;-89
2022/10/24 11:24:21;;;;;;;10.60;4.57;;;;;;;17.33;63.52;101945.53;4981780;28;20533;-91
2022/10/24 11:27:00;;;;;;;10.73;4.68;;;;;;;17.33;63.58;101942.88;4992041;28;20065;-92
2022/10/24 11:29:53;;;;;;;10.30;4.70;;;;;;;17.34;63.45;101939.44;4976099;28;20022;-91
2022/10/24 11:32:45;;;;;;;11.20;4.20;;;;;;;17.35;63.52;101936.84;4992119;28;20026;-91
2022/10/24 11:35:36;;;;;;;11.45;4.50;;;;;;;17.36;63.56;101935.13;4992610;28;20026;-89
2022/10/24 11:38:15;;;;;;;9.35;4.03;;;;;;;17.28;63.41;101917.19;4981675;28;20085;-92
2022/10/24 11:40:45;;;;;;;6.88;3.72;;;;;;;17.29;63.19;101910.16;5000630;28;20038;-91
2022/10/24 11:43:31;;;;;;;10.30;4.15;;;;;;;17.30;63.33;101918.16;5009910;28;20073;-92
2022/10/24 11:46:16;;;;;;;9.43;4.13;;;;;;;17.42;63.59;101935.38;4970101;28;20018;-93
2022/10/24 11:49:11;;;;;;;8.25;4.55;;;;;;;17.41;63.59;101936.22;4988594;28;20027;-89
2022/10/24 11:51:57;;;;;;;8.82;3.92;;;;;;;17.26;63.43;101902.09;5002581;28;20031;-91
2022/10/24 11:54:38;;;;;;;9.32;4.20;;;;;;;17.28;63.28;101906.63;4976441;28;20065;-89
2022/10/24 11:57:11;;;;;;;7.80;4.15;;;;;;;17.42;63.64;101922.16;5001833;28;20412;-91
2022/10/24 11:59:38;;;;;;;9.27;4.53;;;;;;;17.49;63.39;101938.38;5012577;28;20022;-91
2022/10/24 12:02:23;;;;;;;7.82;4.00;;;;;;;17.54;63.41;101938.56;4992958;28;20056;-91
2022/10/24 12:05:20;;;;;;;11.43;4.10;;;;;;;17.22;63.36;101879.03;4994158;28;20053;-91
2022/10/24 12:07:57;;;;;;;8.00;3.90;;;;;;;17.58;63.17;101924.66;4975138;28;20030;-89
2022/10/24 12:10:48;;;;;;;9.75;3.60;;;;;;;17.27;63.33;101864.28;4988624;28;20057;-90
2022/10/24 12:13:33;;;;;;;7.80;3.95;;;;;;;17.39;63.08;101893.88;4966406;28;20420;-90
2022/10/24 12:16:03;;;;;;;8.80;4.25;;;;;;;17.63;63.31;101923.13;4998861;28;20113;-89
2022/10/24 12:18:34;;;;;;;6.88;3.55;;;;;;;17.65;63.05;101926.75;4992814;28;20055;-91